createdAt,value
2022-09-12T00:01:28.542Z,3.70
2022-09-12T00:03:58.352Z,4.07
2022-09-12T00:06:29.164Z,2.57
2022-09-12T00:09:01.883Z,3.43
2022-09-12T00:11:30.665Z,2.80
2022-09-12T00:14:03.601Z,2.80
2022-09-12T00:16:35.521Z,2.80
2022-09-12T00:19:04.685Z,2.80
2022-09-12T00:21:35.085Z,2.80
2022-09-12T00:24:04.277Z,3.10
2022-09-12T00:26:33.431Z,2.90
2022-09-12T00:29:03.417Z,2.60
2022-09-12T00:31:32.015Z,4.67
2022-09-12T00:34:01.887Z,2.80
2022-09-12T00:36:31.563Z,2.70
2022-09-12T00:39:00.528Z,2.87
2022-09-12T00:41:31.470Z,2.20
2022-09-12T00:44:03.132Z,2.93
2022-09-12T00:46:37.770Z,2.90
2022-09-12T00:49:12.880Z,3.03
2022-09-12T00:51:46.339Z,4.67
2022-09-12T00:54:18.444Z,5.23
2022-09-12T00:56:50.017Z,3.53
2022-09-12T00:59:23.816Z,3.03
2022-09-12T01:01:53.627Z,3.30
2022-09-12T01:04:24.741Z,2.30
2022-09-12T01:06:54.039Z,2.23
2022-09-12T01:09:24.464Z,2.97
2022-09-12T01:11:54.342Z,2.27
2022-09-12T01:14:24.329Z,2.33
2022-09-12T01:16:53.512Z,2.67
2022-09-12T01:19:51.443Z,2.60
2022-09-12T01:22:43.589Z,2.33
2022-09-12T01:25:20.594Z,2.97
2022-09-12T01:28:03.958Z,2.80
2022-09-12T01:30:46.480Z,2.40
2022-09-12T01:33:41.085Z,3.10
2022-09-12T01:36:33.680Z,4.07
2022-09-12T01:39:05.382Z,2.63
2022-09-12T01:41:50.088Z,2.77
2022-09-12T01:44:30.585Z,2.33
2022-09-12T01:47:08.622Z,2.50
2022-09-12T01:49:42.948Z,2.50
2022-09-12T01:52:16.934Z,2.80
2022-09-12T01:54:49.247Z,3.07
2022-09-12T01:57:25.169Z,3.23
2022-09-12T01:59:59.782Z,2.20
2022-09-12T02:02:34.843Z,2.30
2022-09-12T02:05:10.928Z,2.40
2022-09-12T02:07:43.284Z,2.23
2022-09-12T02:10:16.406Z,2.53
2022-09-12T02:12:49.090Z,2.20
2022-09-12T02:15:21.650Z,2.20
2022-09-12T02:17:53.660Z,2.00
2022-09-12T02:20:46.510Z,2.30
2022-09-12T02:23:17.161Z,2.40
2022-09-12T02:25:49.732Z,2.30
2022-09-12T02:28:22.923Z,2.07
2022-09-12T02:31:00.823Z,2.00
2022-09-12T02:33:39.369Z,2.23
2022-09-12T02:36:17.946Z,1.90
2022-09-12T02:38:48.200Z,2.47
2022-09-12T02:41:20.703Z,2.10
2022-09-12T02:43:51.699Z,1.90
2022-09-12T02:46:24.979Z,1.93
2022-09-12T02:48:56.819Z,2.13
2022-09-12T02:51:27.314Z,2.10
2022-09-12T02:53:55.933Z,2.20
2022-09-12T02:56:28.696Z,2.30
2022-09-12T02:59:01.379Z,2.50
2022-09-12T03:01:42.463Z,2.30
2022-09-12T03:04:40.217Z,2.10
2022-09-12T03:07:17.889Z,2.90
2022-09-12T03:09:50.661Z,5.30
2022-09-12T03:12:30.191Z,2.47
2022-09-12T03:15:18.594Z,1.90
2022-09-12T03:18:05.817Z,2.00
2022-09-12T03:20:46.365Z,1.70
2022-09-12T03:23:25.462Z,1.80
2022-09-12T03:25:58.495Z,2.00
2022-09-12T03:28:27.805Z,2.20
2022-09-12T03:30:56.661Z,2.27
2022-09-12T03:33:26.448Z,1.77
2022-09-12T03:35:56.954Z,1.93
2022-09-12T03:38:25.487Z,2.10
2022-09-12T03:40:54.954Z,1.77
2022-09-12T03:43:23.755Z,2.93
2022-09-12T03:45:53.529Z,2.10
2022-09-12T03:48:22.555Z,2.07
2022-09-12T03:50:51.343Z,2.10
2022-09-12T03:53:21.198Z,2.17
2022-09-12T03:55:49.675Z,1.87
2022-09-12T03:58:18.197Z,2.20
2022-09-12T04:00:46.894Z,2.37
2022-09-12T04:03:15.435Z,2.10
2022-09-12T04:05:43.925Z,2.20
2022-09-12T04:08:12.389Z,5.07
2022-09-12T04:10:42.514Z,4.07
2022-09-12T04:13:11.060Z,2.17
2022-09-12T04:15:39.568Z,2.70
2022-09-12T04:18:08.071Z,2.40
2022-09-12T04:20:37.894Z,2.67
2022-09-12T04:23:07.189Z,3.87
2022-09-12T04:25:35.676Z,2.20
2022-09-12T04:28:05.733Z,2.33
2022-09-12T04:30:35.557Z,2.00
2022-09-12T04:33:07.976Z,1.87
2022-09-12T04:35:37.657Z,2.00
2022-09-12T04:38:06.190Z,2.00
2022-09-12T04:40:34.746Z,2.63
2022-09-12T04:43:03.232Z,2.60
2022-09-12T04:45:33.149Z,2.83
2022-09-12T04:48:01.967Z,2.50
2022-09-12T04:50:30.438Z,1.67
2022-09-12T04:52:58.934Z,2.87
2022-09-12T04:55:27.489Z,2.80
2022-09-12T04:57:56.032Z,4.23
2022-09-12T05:00:24.708Z,6.00
2022-09-12T05:02:54.643Z,2.20
2022-09-12T05:05:23.198Z,3.40
2022-09-12T05:07:51.617Z,1.80
2022-09-12T05:10:20.122Z,6.63
2022-09-12T05:12:48.644Z,4.53
2022-09-12T05:15:18.250Z,3.37
2022-09-12T05:17:46.737Z,2.83
2022-09-12T05:20:17.543Z,3.93
2022-09-12T05:22:45.994Z,6.30
2022-09-12T05:25:14.505Z,3.70
2022-09-12T05:27:45.465Z,4.13
2022-09-12T05:30:16.092Z,4.77
2022-09-12T05:32:44.830Z,4.33
2022-09-12T05:35:13.386Z,4.80
2022-09-12T05:37:44.593Z,5.97
2022-09-12T05:40:16.243Z,4.53
2022-09-12T05:42:44.764Z,8.10
2022-09-12T05:45:14.323Z,7.43
2022-09-12T05:47:43.989Z,2.77
2022-09-12T05:50:12.506Z,2.20
2022-09-12T05:52:42.638Z,1.97
2022-09-12T05:55:11.901Z,2.90
2022-09-12T05:57:40.664Z,2.73
2022-09-12T06:00:10.818Z,3.50
2022-09-12T06:02:42.299Z,2.80
2022-09-12T06:05:11.076Z,2.27
2022-09-12T06:07:39.735Z,4.53
2022-09-12T06:10:12.092Z,4.07
2022-09-12T06:12:40.737Z,2.83
2022-09-12T06:15:10.471Z,3.67
2022-09-12T06:17:39.026Z,2.90
2022-09-12T06:20:08.425Z,4.20
2022-09-12T06:22:36.995Z,4.80
2022-09-12T06:25:05.907Z,5.03
2022-09-12T06:27:36.778Z,11.23
2022-09-12T06:30:07.123Z,8.77
2022-09-12T06:32:35.816Z,2.83
2022-09-12T06:35:05.640Z,4.40
2022-09-12T06:37:34.353Z,4.00
2022-09-12T06:40:03.397Z,3.27
2022-09-12T06:42:32.691Z,2.77
2022-09-12T06:45:02.747Z,2.30
2022-09-12T06:47:31.313Z,2.97
2022-09-12T06:49:59.800Z,3.10
2022-09-12T06:52:29.295Z,3.63
2022-09-12T06:54:57.785Z,3.07
2022-09-12T06:57:30.184Z,3.07
2022-09-12T06:59:58.936Z,2.70
2022-09-12T07:02:28.913Z,1.90
2022-09-12T07:04:57.527Z,6.77
2022-09-12T07:07:26.015Z,4.67
2022-09-12T07:09:54.641Z,2.40
2022-09-12T07:12:23.087Z,1.90
2022-09-12T07:14:51.575Z,2.23
2022-09-12T07:17:20.408Z,2.80
2022-09-12T07:19:50.290Z,2.53
2022-09-12T07:22:18.821Z,2.37
2022-09-12T07:24:47.753Z,2.87
2022-09-12T07:27:16.235Z,3.50
2022-09-12T07:29:46.981Z,4.77
2022-09-12T07:32:16.190Z,2.33
2022-09-12T07:34:44.697Z,2.40
2022-09-12T07:37:14.620Z,3.07
2022-09-12T07:39:43.144Z,3.90
2022-09-12T07:42:11.659Z,4.50
2022-09-12T07:44:40.202Z,3.80
2022-09-12T07:47:09.198Z,4.30
2022-09-12T07:49:37.677Z,5.40
2022-09-12T07:52:06.618Z,4.10
2022-09-12T07:54:36.734Z,4.67
2022-09-12T07:57:05.396Z,4.57
2022-09-12T07:59:51.991Z,5.00
2022-09-12T08:02:21.750Z,4.43
2022-09-12T08:04:51.524Z,4.07
2022-09-12T08:07:20.878Z,4.60
2022-09-12T08:09:50.756Z,5.27
2022-09-12T08:12:20.420Z,4.20
2022-09-12T08:14:48.905Z,3.97
2022-09-12T08:17:17.446Z,4.90
2022-09-12T08:19:46.028Z,4.37
2022-09-12T08:22:15.527Z,4.20
2022-09-12T08:24:44.514Z,4.33
2022-09-12T08:27:14.931Z,4.53
2022-09-12T08:29:43.435Z,7.10
2022-09-12T08:32:11.972Z,2.03
2022-09-12T08:34:40.453Z,2.40
2022-09-12T08:37:08.888Z,2.87
2022-09-12T08:39:37.497Z,2.50
2022-09-12T08:42:07.516Z,2.63
2022-09-12T08:45:11.455Z,2.37
2022-09-12T08:47:46.198Z,2.87
2022-09-12T08:50:18.687Z,3.03
2022-09-12T08:52:55.060Z,2.93
2022-09-12T08:55:33.488Z,3.37
2022-09-12T08:58:03.185Z,4.30
2022-09-12T09:00:40.884Z,4.53
2022-09-12T09:03:47.186Z,3.40
2022-09-12T09:06:27.040Z,4.20
2022-09-12T09:09:05.090Z,2.90
2022-09-12T09:11:48.300Z,3.90
2022-09-12T09:14:51.011Z,3.20
2022-09-12T09:17:27.218Z,3.80
2022-09-12T09:20:04.540Z,3.00
2022-09-12T09:22:46.201Z,2.67
2022-09-12T09:25:23.052Z,3.00
2022-09-12T09:27:58.777Z,3.00
2022-09-12T09:30:28.755Z,4.07
2022-09-12T09:33:01.239Z,3.50
2022-09-12T09:35:44.062Z,2.90
2022-09-12T09:38:24.059Z,2.77
2022-09-12T09:41:12.483Z,2.70
2022-09-12T09:43:41.156Z,2.10
2022-09-12T09:46:09.833Z,2.40
2022-09-12T09:48:41.957Z,3.10
2022-09-12T09:51:13.201Z,2.90
2022-09-12T09:53:47.884Z,2.00
2022-09-12T09:56:29.780Z,2.70
2022-09-12T09:58:58.578Z,2.40
2022-09-12T10:01:28.283Z,2.77
2022-09-12T10:03:57.850Z,2.10
2022-09-12T10:06:38.328Z,2.20
2022-09-12T10:09:18.719Z,2.00
2022-09-12T10:11:48.206Z,1.67
2022-09-12T10:14:36.754Z,2.07
2022-09-12T10:17:25.236Z,2.00
2022-09-12T10:20:17.488Z,1.83
2022-09-12T10:22:49.001Z,2.00
2022-09-12T10:25:21.454Z,2.50
2022-09-12T10:27:57.391Z,2.93
2022-09-12T10:30:28.820Z,2.90
2022-09-12T10:33:07.045Z,2.20
2022-09-12T10:35:46.995Z,2.17
2022-09-12T10:38:22.879Z,2.73
2022-09-12T10:40:59.857Z,2.57
2022-09-12T10:43:31.583Z,2.70
2022-09-12T10:46:01.314Z,3.23
2022-09-12T10:48:31.982Z,2.30
2022-09-12T10:51:01.279Z,2.00
2022-09-12T10:53:40.808Z,2.40
2022-09-12T10:56:14.024Z,2.20
2022-09-12T10:59:11.912Z,3.07
2022-09-12T11:01:45.975Z,2.63
2022-09-12T11:04:43.120Z,2.50
2022-09-12T11:07:26.585Z,1.70
2022-09-12T11:10:04.150Z,2.73
2022-09-12T11:12:41.669Z,2.57
2022-09-12T11:15:30.815Z,2.20
2022-09-12T11:18:07.455Z,3.07
2022-09-12T11:21:01.116Z,2.60
2022-09-12T11:24:00.536Z,2.93
2022-09-12T11:26:46.023Z,2.30
2022-09-12T11:29:25.046Z,3.00
2022-09-12T11:32:29.026Z,2.20
2022-09-12T11:35:05.217Z,3.13
2022-09-12T11:37:50.240Z,2.17
2022-09-12T11:40:30.851Z,3.17
2022-09-12T11:43:06.977Z,1.77
2022-09-12T11:45:41.522Z,1.70
2022-09-12T11:48:17.447Z,1.63
2022-09-12T11:50:46.019Z,2.33
2022-09-12T11:53:20.304Z,2.90
2022-09-12T11:55:56.486Z,6.53
2022-09-12T11:58:31.831Z,2.10
2022-09-12T12:01:10.682Z,1.93
2022-09-12T12:03:43.632Z,1.87
2022-09-12T12:06:16.655Z,2.00
2022-09-12T12:08:47.285Z,2.37
2022-09-12T12:11:17.676Z,2.53
2022-09-12T12:13:52.529Z,3.25
2022-09-12T12:16:27.254Z,1.83
2022-09-12T12:19:00.371Z,1.73
2022-09-12T12:21:41.168Z,2.10
2022-09-12T12:24:19.052Z,1.80
2022-09-12T12:26:58.662Z,1.60
2022-09-12T12:29:45.977Z,1.53
2022-09-12T12:32:25.902Z,5.07
2022-09-12T12:35:31.507Z,2.53
2022-09-12T12:38:01.707Z,2.00
2022-09-12T12:40:31.986Z,2.27
2022-09-12T12:43:16.986Z,1.53
2022-09-12T12:46:12.727Z,1.37
2022-09-12T12:49:14.178Z,3.17
2022-09-12T12:52:02.111Z,1.53
2022-09-12T12:54:33.683Z,1.50
2022-09-12T12:57:07.617Z,2.23
2022-09-12T12:59:36.231Z,1.30
2022-09-12T13:02:06.543Z,2.07
2022-09-12T13:04:36.082Z,1.60
2022-09-12T13:07:08.831Z,1.83
2022-09-12T13:09:45.349Z,1.95
2022-09-12T13:12:22.933Z,1.40
2022-09-12T13:14:54.869Z,1.67
2022-09-12T13:17:32.513Z,1.17
2022-09-12T13:20:27.190Z,1.43
2022-09-12T13:22:57.293Z,1.50
2022-09-12T13:25:29.978Z,1.73
2022-09-12T13:28:04.906Z,1.80
2022-09-12T13:30:35.334Z,2.00
2022-09-12T13:33:28.671Z,1.80
2022-09-12T13:36:28.066Z,1.70
2022-09-12T13:39:21.512Z,1.58
2022-09-12T13:42:25.985Z,1.58
2022-09-12T13:44:59.864Z,1.40
2022-09-12T13:47:34.476Z,1.40
2022-09-12T13:50:07.362Z,1.85
2022-09-12T13:52:39.258Z,1.53
2022-09-12T13:55:17.017Z,2.10
2022-09-12T13:57:45.754Z,1.23
2022-09-12T14:00:20.043Z,1.63
2022-09-12T14:02:49.666Z,1.45
2022-09-12T14:05:22.770Z,3.28
2022-09-12T14:07:57.322Z,1.70
2022-09-12T14:10:30.310Z,2.08
2022-09-12T14:13:00.260Z,1.73
2022-09-12T14:15:31.327Z,1.58
2022-09-12T14:18:03.763Z,1.63
2022-09-12T14:20:38.701Z,1.48
2022-09-12T14:23:17.924Z,2.65
2022-09-12T14:25:48.109Z,2.03
2022-09-12T14:28:23.556Z,1.77
2022-09-12T14:31:01.686Z,1.88
2022-09-12T14:33:32.856Z,1.83
2022-09-12T14:36:23.243Z,1.85
2022-09-12T14:38:54.108Z,1.80
2022-09-12T14:41:27.409Z,1.73
2022-09-12T14:43:59.417Z,3.03
2022-09-12T14:46:33.951Z,2.20
2022-09-12T14:49:09.287Z,2.37
2022-09-12T14:51:41.851Z,2.10
2022-09-12T14:54:37.380Z,2.20
2022-09-12T14:57:08.047Z,2.00
2022-09-12T14:59:40.947Z,2.10
2022-09-12T15:02:27.454Z,2.57
2022-09-12T15:05:15.769Z,2.83
2022-09-12T15:07:53.886Z,2.07
2022-09-12T15:10:26.414Z,2.10
2022-09-12T15:13:14.252Z,1.93
2022-09-12T15:15:44.875Z,2.47
2022-09-12T15:18:13.913Z,2.20
2022-09-12T15:20:44.734Z,2.60
2022-09-12T15:23:20.274Z,1.90
2022-09-12T15:25:50.342Z,3.10
2022-09-12T15:28:21.481Z,2.30
2022-09-12T15:30:51.875Z,2.57
2022-09-12T15:33:22.973Z,2.80
2022-09-12T15:35:59.929Z,2.27
2022-09-12T15:38:30.395Z,3.13
2022-09-12T15:40:58.887Z,2.37
2022-09-12T15:43:28.125Z,2.30
2022-09-12T15:45:56.724Z,2.00
2022-09-12T15:48:28.272Z,2.60
2022-09-12T15:51:01.460Z,3.40
2022-09-12T15:53:31.871Z,2.10
2022-09-12T15:56:00.350Z,2.00
2022-09-12T15:58:28.839Z,2.13
2022-09-12T16:00:57.616Z,2.37
2022-09-12T16:03:28.815Z,2.70
2022-09-12T16:05:59.141Z,2.60
2022-09-12T16:08:27.690Z,2.73
2022-09-12T16:10:59.784Z,2.23
2022-09-12T16:13:28.354Z,3.40
2022-09-12T16:15:59.230Z,2.60
2022-09-12T16:18:28.361Z,2.30
2022-09-12T16:20:57.489Z,2.67
2022-09-12T16:23:26.214Z,2.77
2022-09-12T16:25:59.844Z,3.00
2022-09-12T16:28:29.846Z,2.70
2022-09-12T16:30:59.644Z,2.50
2022-09-12T16:33:29.242Z,2.67
2022-09-12T16:36:04.132Z,3.47
2022-09-12T16:38:33.865Z,2.93
2022-09-12T16:41:05.254Z,2.13
2022-09-12T16:43:36.050Z,2.43
2022-09-12T16:46:05.782Z,2.80
2022-09-12T16:48:35.032Z,2.40
2022-09-12T16:51:06.963Z,2.93
2022-09-12T16:53:37.182Z,3.20
2022-09-12T16:56:07.714Z,2.83
2022-09-12T16:58:41.638Z,3.40
2022-09-12T17:01:12.658Z,2.70
2022-09-12T17:03:41.560Z,3.10
2022-09-12T17:06:11.254Z,2.70
2022-09-12T17:08:41.266Z,5.63
2022-09-12T17:11:13.709Z,3.13
2022-09-12T17:14:03.244Z,3.10
2022-09-12T17:16:31.302Z,3.13
2022-09-12T17:19:00.019Z,2.63
2022-09-12T17:21:29.009Z,2.90
2022-09-12T17:23:57.507Z,3.60
2022-09-12T17:26:27.511Z,3.03
2022-09-12T17:28:58.755Z,2.93
2022-09-12T17:31:27.805Z,3.70
2022-09-12T17:33:59.155Z,3.27
2022-09-12T17:36:29.036Z,3.33
2022-09-12T17:38:57.930Z,3.90
2022-09-12T17:41:31.874Z,3.83
2022-09-12T17:44:02.555Z,4.07
2022-09-12T17:46:35.240Z,3.70
2022-09-12T17:49:05.840Z,3.97
2022-09-12T17:51:34.783Z,4.13
2022-09-12T17:54:06.185Z,4.77
2022-09-12T17:56:38.228Z,5.13
2022-09-12T17:59:08.578Z,5.10
2022-09-12T18:01:54.541Z,5.13
2022-09-12T18:04:23.142Z,4.47
2022-09-12T18:06:54.227Z,4.60
2022-09-12T18:09:25.239Z,5.40
2022-09-12T18:11:55.373Z,5.13
2022-09-12T18:14:24.127Z,5.23
2022-09-12T18:16:52.680Z,8.17
2022-09-12T18:19:21.191Z,7.43
2022-09-12T18:21:49.685Z,5.87
2022-09-12T18:24:18.190Z,4.63
2022-09-12T18:26:48.502Z,4.50
2022-09-12T18:29:20.171Z,5.10
2022-09-12T18:31:48.759Z,4.83
2022-09-12T18:34:18.178Z,5.07
2022-09-12T18:36:51.059Z,4.83
2022-09-12T18:39:25.246Z,6.10
2022-09-12T18:41:56.389Z,5.63
2022-09-12T18:44:26.295Z,12.27
2022-09-12T18:46:54.860Z,9.40
2022-09-12T18:49:23.856Z,5.17
2022-09-12T18:51:52.422Z,4.50
2022-09-12T18:54:21.008Z,4.30
2022-09-12T18:56:49.853Z,5.47
2022-09-12T18:59:18.375Z,4.57
2022-09-12T19:01:48.385Z,8.67
2022-09-12T19:04:17.024Z,9.50
2022-09-12T19:06:46.628Z,7.17
2022-09-12T19:09:16.976Z,6.87
2022-09-12T19:11:50.155Z,6.23
2022-09-12T19:14:22.683Z,6.80
2022-09-12T19:16:53.039Z,12.70
2022-09-12T19:19:24.769Z,5.70
2022-09-12T19:21:53.702Z,8.47
2022-09-12T19:24:22.180Z,8.93
2022-09-12T19:26:51.776Z,7.80
2022-09-12T19:29:20.464Z,9.17
2022-09-12T19:31:48.904Z,5.07
2022-09-12T19:34:18.821Z,5.67
2022-09-12T19:36:47.699Z,5.50
2022-09-12T19:39:17.768Z,6.13
2022-09-12T19:41:46.834Z,6.97
2022-09-12T19:44:15.370Z,8.43
2022-09-12T19:46:44.047Z,3.70
2022-09-12T19:49:13.963Z,5.20
2022-09-12T19:51:43.994Z,8.30
2022-09-12T19:54:12.609Z,6.23
2022-09-12T19:56:41.097Z,4.93
2022-09-12T19:59:09.984Z,5.87
2022-09-12T20:01:39.876Z,6.20
2022-09-12T20:04:08.503Z,4.97
2022-09-12T20:06:37.007Z,5.43
2022-09-12T20:09:07.102Z,7.30
2022-09-12T20:11:36.437Z,6.53
2022-09-12T20:14:04.967Z,7.90
2022-09-12T20:16:33.751Z,17.63
2022-09-12T20:19:07.098Z,4.50
2022-09-12T20:21:36.903Z,5.37
2022-09-12T20:24:08.659Z,5.67
2022-09-12T20:26:37.479Z,6.90
2022-09-12T20:29:07.203Z,7.73
2022-09-12T20:31:36.794Z,6.93
2022-09-12T20:34:06.076Z,6.33
2022-09-12T20:36:35.188Z,6.43
2022-09-12T20:39:04.463Z,5.90
2022-09-12T20:41:36.517Z,5.30
2022-09-12T20:44:05.084Z,5.80
2022-09-12T20:46:33.728Z,6.43
2022-09-12T20:49:02.229Z,8.53
2022-09-12T20:51:30.926Z,5.73
2022-09-12T20:54:00.781Z,6.10
2022-09-12T20:56:29.954Z,5.10
2022-09-12T20:59:01.126Z,8.67
2022-09-12T21:01:31.433Z,5.60
2022-09-12T21:04:01.400Z,5.97
2022-09-12T21:06:29.959Z,4.30
2022-09-12T21:09:00.615Z,4.50
2022-09-12T21:11:29.957Z,5.43
2022-09-12T21:13:59.939Z,5.13
2022-09-12T21:16:28.626Z,5.77
2022-09-12T21:18:59.524Z,4.07
2022-09-12T21:21:28.913Z,4.60
2022-09-12T21:23:59.764Z,4.80
2022-09-12T21:26:28.580Z,4.50
2022-09-12T21:28:57.575Z,6.70
2022-09-12T21:31:27.721Z,4.67
2022-09-12T21:33:56.316Z,4.33
2022-09-12T21:36:25.719Z,4.40
2022-09-12T21:38:54.401Z,5.50
2022-09-12T21:41:22.870Z,4.57
2022-09-12T21:43:51.454Z,5.27
2022-09-12T21:46:20.091Z,3.97
2022-09-12T21:48:50.262Z,5.13
2022-09-12T21:51:18.878Z,4.70
2022-09-12T21:53:47.412Z,4.60
2022-09-12T21:56:15.999Z,4.27
2022-09-12T21:58:44.451Z,4.47
2022-09-12T22:01:13.654Z,5.23
2022-09-12T22:03:44.927Z,4.77
2022-09-12T22:06:17.721Z,4.70
2022-09-12T22:08:48.333Z,4.73
2022-09-12T22:11:17.665Z,4.60
2022-09-12T22:13:46.234Z,4.47
2022-09-12T22:16:14.822Z,4.03
2022-09-12T22:18:43.354Z,4.60
2022-09-12T22:21:15.997Z,6.30
2022-09-12T22:24:13.592Z,4.30
2022-09-12T22:26:43.357Z,3.73
2022-09-12T22:29:13.385Z,4.13
2022-09-12T22:31:42.229Z,3.30
2022-09-12T22:34:10.780Z,5.90
2022-09-12T22:36:40.930Z,4.87
2022-09-12T22:39:09.913Z,4.43
2022-09-12T22:41:38.439Z,3.97
2022-09-12T22:44:06.987Z,4.37
2022-09-12T22:46:35.543Z,6.73
2022-09-12T22:49:05.388Z,4.10
2022-09-12T22:51:34.765Z,5.07
2022-09-12T22:54:05.753Z,6.87
2022-09-12T22:56:34.467Z,4.00
2022-09-12T22:59:03.018Z,6.67
2022-09-12T23:01:31.988Z,3.60
2022-09-12T23:04:01.588Z,4.37
2022-09-12T23:06:30.328Z,4.27
2022-09-12T23:08:58.807Z,3.83
2022-09-12T23:11:28.999Z,3.40
2022-09-12T23:13:57.486Z,5.83
2022-09-12T23:16:28.444Z,6.63
2022-09-12T23:18:57.177Z,6.40
2022-09-12T23:21:25.867Z,3.40
2022-09-12T23:23:56.349Z,4.10
2022-09-12T23:26:28.309Z,5.13
2022-09-12T23:29:00.187Z,2.83
2022-09-12T23:31:30.906Z,3.53
2022-09-12T23:34:02.017Z,2.57
2022-09-12T23:36:31.208Z,4.30
2022-09-12T23:39:00.171Z,5.00
2022-09-12T23:41:29.797Z,3.10
2022-09-12T23:43:59.988Z,3.40
2022-09-12T23:46:28.630Z,4.97
2022-09-12T23:48:57.112Z,2.83
2022-09-12T23:51:25.652Z,3.50
2022-09-12T23:53:54.174Z,3.20
2022-09-12T23:56:23.414Z,3.13
2022-09-12T23:58:51.908Z,3.30
